Wichita Mid Continent Airport
KICT : now visible

Airfield :











YOU CAN JOIN US ON...

 
LOGIN :

Register | Disclaimer

   EN    FR    IT 

 









Legend :    VFR   Marginal VFR   IFR   Intensive IFR   Very Intensive IFR
Visi :
Ceiling :
>= 8 km
>= 3000ft
5 to 8 km
1000 to 3000 ft
1500m to 5 km
500 to 1000 ft
800 to 1500m
200 to 500 ft
< 800m
< 200 ft
Symbols :   Thunderstorms  Fog  Heavy snow  Heavy precipitations  Wind > 20 kt







- Airport Elevation : 1333 ft
- IATA code : ICT


KICT - Wichita Mid Continent

CURRENT METAR :
  • 222353Z 12005KT 10SM SCT025 SCT150 SCT180 BKN220 27/21 A2991 RMK AO2 SLP115 60000 T02670211 10272 20250 56015

EXPIRED METARs :
  • 222253Z 15007KT 10SM FEW030 FEW120 BKN150 BKN180 BKN220 27/20 A2992 RMK AO2 SLP118 T02670200
  • 222153Z 16005KT 10SM FEW030 FEW120 SCT150 BKN180 BKN220 26/19 A2994 RMK AO2 SLP126 T02610194

TAF KICT
Valid from the 23 at 00:00 until the 24 at 00:00 UTC


222330Z 2300/2324 12007KT P6SM FEW040 SCT150
FM231100 09007KT P6SM VCSH BKN025
FM231200 09007KT P6SM BKN015
FM231400 11006KT P6SM BKN025
FM231700 10007KT P6SM BKN035
No reported NOTAMs for that airfield.



MET'MAP, your aeronautical weather chart ! - Copyright ORBIFLY December 2007 - Disclaimer

ORBIFLY MET'MAP TEAM :

Programming & Development : Alexandra Zaïnal
Concept & Development : Baudouin d'Aumeries
Co-Development & Prog : Marc-Olivier Méhu
Technical & hardware support : Manuel Goepfert

Contact : metmap@orbifly.com




SOURCES & CREDITS :

   NOAA       Earth
Advisory